Fort Hall, ID (83203)

7:59 PM MST on February 28, 2015 (GMT -0700)
MesoWest FORT HALL ID US AGRIMET | Change Station
CLOSE
Current Station
Personal Weather Station
Location: Fort Hall, ID
Elevation: 4445 ft
Nearby Weather Stations

Elev 4445 ft 43.07 °N, 112.43 °W | Updated 59 minutes ago

Partly Cloudy
Partly Cloudy
33 °F
Feels Like 22 °F
N
17
Wind Variable Wind from NE
Gusts 24.0 mph

Today
High -- | Low -- °F
--% Chance of Precip.
Yesterday
High -- | Low -- °F
Precip. -- in
7:07 AM 6:17 PM
Waxing Gibbous, 82% visible
Pressure 29.99 in
Visibility 10.0 miles
Clouds Clear
Windchill 22 °F
Dew Point 9 °F
Humidity 36%
Rainfall 0.00 in
Snow Depth Not available.
UV 0 out of 12
Pollen 3.00 out of 12
Air Quality Not available.
Flu Activity Not available.
METAR KPIH 010253Z 03018G24KT 10SM CLR 00/M12 A2990 RMK AO2 SLP154 T00001122 53033

More Conditions Fewer Conditions

Pressure 29.99 in
Visibility 10.0 miles
Clouds Clear
Windchill 22 °F
Dew Point 9 °F
Humidity 36%
Rainfall 0.00 in
Snow Depth Not available.
UV 0 out of 12
Pollen 3.00 out of 12
Air Quality Not available.
Flu Activity Not available.
METAR KPIH 010253Z 03018G24KT 10SM CLR 00/M12 A2990 RMK AO2 SLP154 T00001122 53033

More Conditions Fewer Conditions

10-Day Weather Forecast

Almanac

Astronomy

Feb. 28, 2015 Rise Set
Actual Time
Civil Twilight
Nautical Twilight
Astronomical Twilight
Moon
Length of Visible Light
Length of Day
Tomorrow will be .
, % of the Moon is Illuminated

Today's Extremes

State Highs State Lows

Community

WunderPhotos

Upload Photos

1,801,276 photos uploaded!

WunderBlogs® & News

Nearby

Air Quality

  Air Quality AQ Index Pollutant
Not available.

Snow Depth

Station Depth Elevation

Earthquake Activity

City Distance Mag. Time & Date
Minimum magnitude displayed is 2.5.

Coastal Water Temperatures

Place Temperature

Nearby Weather Stations